Casper, WY (82604)

8:25 AM MDT on September 02, 2014 (GMT -0600)
North of Casper, WY | Change Station
CLOSE
Current Station
Personal Weather Station
Location: Bar Nunn, WY
Elevation: 5276 ft
Nearby Weather Stations
Active Advisory: Fire Weather Warning

Elev 5276 ft 42.91 °N, 106.35 °W | Updated 4 minutes ago

Clear
Clear
50.1 °F
Feels Like 50.1 °F
N
0.0
Wind Variable Wind from NNE
Gusts 0.0 mph

Today
High -- | Low -- °F
--% Chance of Precip.
Yesterday
High -- | Low -- °F
Precip. -- in
6:31 AM 7:38 PM
First Quarter, 52% visible
Pressure 29.96 in
Visibility 10.0 miles
Clouds Clear
Dew Point 45 °F
Humidity 84%
Rainfall 0.00 in
Snow Depth 1 in
UV 1 out of 12
Pollen 8.50 out of 12
Air Quality Not available.
Flu Activity Not available.
METAR KCPR 021353Z 25007KT 10SM CLR 11/04 A3007 RMK AO2 SLP145 T01060039

More Conditions Fewer Conditions

Pressure 29.96 in
Visibility 10.0 miles
Clouds Clear
Dew Point 45 °F
Humidity 84%
Rainfall 0.00 in
Snow Depth 1 in
UV 1 out of 12
Pollen 8.50 out of 12
Air Quality Not available.
Flu Activity Not available.
METAR KCPR 021353Z 25007KT 10SM CLR 11/04 A3007 RMK AO2 SLP145 T01060039

More Conditions Fewer Conditions

10-Day Weather Forecast

Almanac

Astronomy

Sep. 02, 2014 Rise Set
Actual Time 6:31 AM MDT 7:38 PM MDT
Civil Twilight 6:02 AM MDT 8:07 PM MDT
Nautical Twilight 5:27 AM MDT 8:41 PM MDT
Astronomical Twilight 4:50 AM MDT 9:18 PM MDT
Moon 2:28 PM MDT No Moon Set
Length of Visible Light 14h 04m
Length of Day
13h 06m
Tomorrow will be 2m 48s shorter.
First Quarter, 52% of the Moon is Illuminated
Today
First Quarter
Sep 8
Full
Sep 15
Last Quarter
Sep 24
New
Oct 1
First Quarter

Today's Extremes

State Highs State Lows

Community

WunderPhotos

Upload Photos

1,749,677 photos uploaded!

Nearby

Snow Depth

Station Depth Elevation
Casper Mountain 1 in 7850 ft
Reno Hill 0 in 8500 ft
Laprele Creek 0 in 8375 ft
Windy Peak 0 in 7900 ft
Sand Lake 0 in 10050 ft

Earthquake Activity

City Distance Mag. Time & Date
No recent earthquake activity has been reported nearby.
Minimum magnitude displayed is 2.5.

Coastal Water Temperatures

Place Temperature
No Stations Reporting

Nearby Weather Stations